Time;durP1;ratioP1;P1;durP2;ratioP2;P2;SDS_P1;SDS_P2;PMS_P1;PMS_P2;Temp;Humidity;BMP_temperature;BMP_pressure;BME280_temperature;BME280_humidity;BME280_pressure;Samples;Min_cycle;Max_cycle;Signal;HPM_P1;HPM_P2
2022/07/24 00:00:46;;;;;;;;;;;21.70;99.90;;;;;;5032671;28;19971;-64
2022/07/24 00:03:14;;;;;;;;;;;21.80;99.90;;;;;;5032394;28;20481;-64
2022/07/24 00:05:43;;;;;;;;;;;21.80;99.90;;;;;;5033901;28;19980;-65
2022/07/24 00:08:11;;;;;;;;;;;21.70;99.90;;;;;;5035328;28;20033;-64
2022/07/24 00:10:39;;;;;;;;;;;21.70;99.90;;;;;;5037811;28;19971;-64
2022/07/24 00:13:07;;;;;;;;;;;21.80;99.90;;;;;;5043972;28;19967;-64
2022/07/24 00:15:35;;;;;;;;;;;21.70;99.90;;;;;;5051364;28;20107;-63
2022/07/24 00:18:03;;;;;;;;;;;21.70;99.90;;;;;;5051440;28;20017;-64
2022/07/24 00:20:31;;;;;;;;;;;21.70;99.90;;;;;;5051332;28;19972;-64
2022/07/24 00:23:00;;;;;;;;;;;21.70;99.90;;;;;;5051276;28;20013;-64
2022/07/24 00:25:28;;;;;;;;;;;21.60;99.90;;;;;;5051579;28;20070;-65
2022/07/24 00:27:55;;;;;;;;;;;21.60;99.90;;;;;;5046643;28;20455;-64
2022/07/24 00:30:23;;;;;;;;;;;21.60;99.90;;;;;;5051282;28;19967;-64
2022/07/24 00:32:51;;;;;;;;;;;21.60;99.90;;;;;;5051208;28;20029;-64
2022/07/24 00:35:19;;;;;;;;;;;21.60;99.90;;;;;;5051057;28;19970;-64
2022/07/24 00:37:47;;;;;;;;;;;21.60;99.90;;;;;;5046313;28;19973;-64
2022/07/24 00:40:16;;;;;;;;;;;21.60;99.90;;;;;;5033825;28;19970;-64
2022/07/24 00:42:44;;;;;;;;;;;21.60;99.90;;;;;;5031671;28;20360;-64
2022/07/24 00:45:12;;;;;;;;;;;21.60;99.90;;;;;;5031898;28;20329;-65
2022/07/24 00:47:52;;;;;;;;;;;21.60;99.90;;;;;;5044756;28;20020;-64
2022/07/24 00:50:24;;;;;;;;;;;21.50;99.90;;;;;;5051274;28;20472;-64
2022/07/24 00:52:52;;;;;;;;;;;21.40;99.90;;;;;;5044445;28;19974;-64
2022/07/24 00:55:22;;;;;;;;;;;21.40;99.90;;;;;;5031545;28;20044;-65
2022/07/24 00:57:50;;;;;;;;;;;21.40;99.90;;;;;;5031867;28;20450;-64
2022/07/24 01:00:19;;;;;;;;;;;21.40;99.90;;;;;;5044802;28;20379;-64
2022/07/24 01:02:46;;;;;;;;;;;21.30;99.90;;;;;;5031706;28;20030;-64
2022/07/24 01:05:14;;;;;;;;;;;21.30;99.90;;;;;;5038248;28;19975;-64
2022/07/24 01:07:42;;;;;;;;;;;21.30;99.90;;;;;;5043834;28;19983;-64
2022/07/24 01:10:10;;;;;;;;;;;21.30;99.90;;;;;;5037398;28;19968;-64
2022/07/24 01:12:39;;;;;;;;;;;21.30;99.90;;;;;;5031397;28;19975;-64
2022/07/24 01:15:08;;;;;;;;;;;21.30;99.90;;;;;;5031981;28;19977;-64
2022/07/24 01:17:40;;;;;;;;;;;21.20;99.90;;;;;;5032629;28;20027;-64
2022/07/24 01:20:08;;;;;;;;;;;21.20;99.90;;;;;;5031854;28;19971;-64
2022/07/24 01:22:37;;;;;;;;;;;21.20;99.90;;;;;;5031428;28;20430;-64
2022/07/24 01:25:06;;;;;;;;;;;21.20;99.90;;;;;;5031971;28;20421;-64
2022/07/24 01:27:34;;;;;;;;;;;21.20;99.90;;;;;;5034400;28;19990;-64
2022/07/24 01:30:02;;;;;;;;;;;21.20;99.90;;;;;;5031715;28;20020;-64
2022/07/24 01:32:29;;;;;;;;;;;21.10;99.90;;;;;;5031414;28;19981;-64
2022/07/24 01:34:57;;;;;;;;;;;21.10;99.90;;;;;;5031776;28;19982;-64
2022/07/24 01:37:25;;;;;;;;;;;21.10;99.90;;;;;;5037964;28;20528;-63
2022/07/24 01:39:54;;;;;;;;;;;21.00;99.90;;;;;;5038153;28;19974;-64
2022/07/24 01:42:25;;;;;;;;;;;21.00;99.90;;;;;;5033442;28;20305;-64
2022/07/24 01:44:53;;;;;;;;;;;21.00;99.90;;;;;;5031645;28;19981;-64
2022/07/24 01:47:20;;;;;;;;;;;20.90;99.90;;;;;;5031393;28;20000;-64
2022/07/24 01:49:48;;;;;;;;;;;21.00;99.90;;;;;;5031472;28;19967;-64
2022/07/24 01:52:16;;;;;;;;;;;20.90;99.90;;;;;;5033803;28;20042;-64
2022/07/24 01:54:44;;;;;;;;;;;21.00;99.90;;;;;;5035290;28;20007;-64
2022/07/24 01:57:13;;;;;;;;;;;21.00;99.90;;;;;;5036188;28;20451;-64
2022/07/24 01:59:46;;;;;;;;;;;20.90;99.90;;;;;;5054070;28;19982;-64
2022/07/24 02:02:14;;;;;;;;;;;21.00;99.90;;;;;;5053573;28;19971;-64
2022/07/24 02:04:43;;;;;;;;;;;20.90;99.90;;;;;;5053945;28;20492;-64
2022/07/24 02:07:10;;;;;;;;;;;20.90;99.90;;;;;;5047975;28;20039;-64
2022/07/24 02:09:38;;;;;;;;;;;20.90;99.90;;;;;;5042182;28;19973;-64
2022/07/24 02:12:06;;;;;;;;;;;20.90;99.90;;;;;;5034314;28;19981;-63
2022/07/24 02:14:35;;;;;;;;;;;20.90;99.90;;;;;;5034556;28;20494;-64
2022/07/24 02:17:03;;;;;;;;;;;21.00;99.90;;;;;;5035093;28;19976;-64
2022/07/24 02:19:31;;;;;;;;;;;21.00;99.90;;;;;;5040442;28;20024;-64
2022/07/24 02:21:59;;;;;;;;;;;21.00;99.90;;;;;;5034379;28;20518;-63
2022/07/24 02:24:27;;;;;;;;;;;21.00;99.90;;;;;;5034518;28;20019;-64
2022/07/24 02:26:54;;;;;;;;;;;21.00;99.90;;;;;;5034486;28;20380;-64
2022/07/24 02:29:29;;;;;;;;;;;20.90;99.90;;;;;;5034787;28;20072;-64
2022/07/24 02:32:00;;;;;;;;;;;21.00;99.90;;;;;;5034020;28;20128;-63
2022/07/24 02:34:28;;;;;;;;;;;20.90;99.90;;;;;;5038997;28;20025;-64
2022/07/24 02:36:55;;;;;;;;;;;20.90;99.90;;;;;;5038471;28;20353;-64
2022/07/24 02:39:23;;;;;;;;;;;21.00;99.90;;;;;;5045363;28;19974;-64
2022/07/24 02:41:51;;;;;;;;;;;21.00;99.90;;;;;;5059641;23;19982;-69
2022/07/24 02:44:18;;;;;;;;;;;21.00;99.90;;;;;;5043602;28;20459;-68
2022/07/24 02:46:46;;;;;;;;;;;21.00;99.90;;;;;;5033984;28;19979;-68
2022/07/24 02:49:15;;;;;;;;;;;20.90;99.90;;;;;;5033929;28;19997;-68
2022/07/24 02:51:43;;;;;;;;;;;21.00;99.90;;;;;;5036183;28;20505;-68
2022/07/24 02:54:11;;;;;;;;;;;21.00;99.90;;;;;;5046907;28;20594;-68
2022/07/24 02:56:39;;;;;;;;;;;21.00;99.90;;;;;;5052956;28;19979;-68
2022/07/24 02:59:07;;;;;;;;;;;20.90;99.90;;;;;;5053037;28;20104;-68
2022/07/24 03:01:35;;;;;;;;;;;20.90;99.90;;;;;;5052611;28;20040;-67
2022/07/24 03:04:03;;;;;;;;;;;20.90;99.90;;;;;;5052476;28;20444;-68
2022/07/24 03:06:32;;;;;;;;;;;20.90;99.90;;;;;;5050270;28;20642;-68
2022/07/24 03:09:00;;;;;;;;;;;20.90;99.90;;;;;;5038056;28;20462;-68
2022/07/24 03:11:28;;;;;;;;;;;20.80;99.90;;;;;;5033713;28;20058;-67
2022/07/24 03:13:56;;;;;;;;;;;20.80;99.90;;;;;;5037095;28;19978;-68
2022/07/24 03:16:24;;;;;;;;;;;20.80;99.90;;;;;;5052638;28;20396;-68
2022/07/24 03:18:52;;;;;;;;;;;20.80;99.90;;;;;;5052562;28;20194;-68
2022/07/24 03:21:20;;;;;;;;;;;20.70;99.90;;;;;;5052480;28;19982;-67
2022/07/24 03:24:09;;;;;;;;;;;20.70;99.90;;;;;;5052372;28;20071;-70
2022/07/24 03:26:37;;;;;;;;;;;20.70;99.90;;;;;;5052469;28;20020;-68
2022/07/24 03:29:04;;;;;;;;;;;20.60;99.90;;;;;;5052367;28;19974;-68
2022/07/24 03:31:33;;;;;;;;;;;20.60;99.90;;;;;;5052144;28;19971;-68
2022/07/24 03:34:01;;;;;;;;;;;20.60;99.90;;;;;;5051486;28;20429;-68
2022/07/24 03:36:29;;;;;;;;;;;20.70;99.90;;;;;;5035687;28;20082;-68
2022/07/24 03:38:57;;;;;;;;;;;20.60;99.90;;;;;;5040750;28;20334;-69
2022/07/24 03:41:26;;;;;;;;;;;20.60;99.90;;;;;;5039111;28;20035;-68
2022/07/24 03:43:53;;;;;;;;;;;20.60;99.90;;;;;;5038060;28;19968;-68
2022/07/24 03:46:21;;;;;;;;;;;20.50;99.90;;;;;;5033001;28;19972;-68
2022/07/24 03:48:49;;;;;;;;;;;20.50;99.90;;;;;;5032852;28;20407;-68
2022/07/24 03:51:17;;;;;;;;;;;20.60;99.90;;;;;;5032770;28;20448;-68
2022/07/24 03:53:47;;;;;;;;;;;20.50;99.90;;;;;;5032361;28;20012;-68
2022/07/24 03:56:16;;;;;;;;;;;20.50;99.90;;;;;;5052113;28;20024;-68
2022/07/24 03:58:45;;;;;;;;;;;20.40;99.90;;;;;;5043052;28;19971;-67
2022/07/24 04:01:13;;;;;;;;;;;20.30;99.90;;;;;;5032351;28;19971;-68
2022/07/24 04:03:41;;;;;;;;;;;20.40;99.90;;;;;;5041204;28;20474;-68
2022/07/24 04:06:08;;;;;;;;;;;20.40;99.90;;;;;;5038840;28;19971;-70
2022/07/24 04:08:36;;;;;;;;;;;20.40;99.90;;;;;;5043787;28;20458;-68
2022/07/24 04:11:04;;;;;;;;;;;20.40;99.90;;;;;;5027493;28;19978;-68
2022/07/24 04:13:32;;;;;;;;;;;20.40;99.90;;;;;;5050876;28;20017;-68
2022/07/24 04:16:01;;;;;;;;;;;20.40;99.90;;;;;;5051507;28;20316;-68
2022/07/24 04:18:29;;;;;;;;;;;20.40;99.90;;;;;;5048271;28;19991;-68
2022/07/24 04:20:57;;;;;;;;;;;20.30;99.90;;;;;;5051617;28;19973;-66
2022/07/24 04:23:25;;;;;;;;;;;20.40;99.90;;;;;;5032041;28;20450;-68
2022/07/24 04:25:52;;;;;;;;;;;20.30;99.90;;;;;;5032329;28;20002;-68
2022/07/24 04:28:20;;;;;;;;;;;20.30;99.90;;;;;;5032341;28;19980;-69
2022/07/24 04:30:48;;;;;;;;;;;20.30;99.90;;;;;;5032208;28;20172;-68
2022/07/24 04:33:17;;;;;;;;;;;20.30;99.90;;;;;;5033643;28;20518;-68
2022/07/24 04:35:45;;;;;;;;;;;20.30;99.90;;;;;;5032174;28;20019;-69
2022/07/24 04:38:13;;;;;;;;;;;20.30;99.90;;;;;;5043926;28;19992;-68
2022/07/24 04:40:41;;;;;;;;;;;20.30;99.90;;;;;;5040460;28;20050;-68
2022/07/24 04:43:08;;;;;;;;;;;20.30;99.90;;;;;;5031585;28;19991;-68
2022/07/24 04:45:38;;;;;;;;;;;20.30;99.90;;;;;;5051184;28;20002;-68
2022/07/24 04:48:06;;;;;;;;;;;20.30;99.90;;;;;;5051417;28;20520;-68
2022/07/24 04:50:35;;;;;;;;;;;20.30;99.90;;;;;;5051274;28;19971;-68
2022/07/24 04:53:03;;;;;;;;;;;20.30;99.90;;;;;;5031562;28;19989;-68
2022/07/24 04:55:31;;;;;;;;;;;20.30;99.90;;;;;;5045776;28;19976;-68
2022/07/24 04:57:59;;;;;;;;;;;20.40;99.90;;;;;;5051167;28;19964;-68
2022/07/24 05:00:27;;;;;;;;;;;20.40;99.90;;;;;;5051357;28;19976;-68
2022/07/24 05:02:55;;;;;;;;;;;20.40;99.90;;;;;;5044028;28;19996;-69
2022/07/24 05:05:22;;;;;;;;;;;20.60;99.90;;;;;;5032078;28;20067;-68
2022/07/24 05:07:52;;;;;;;;;;;20.60;99.90;;;;;;5044368;28;20021;-68
2022/07/24 05:10:19;;;;;;;;;;;20.60;99.90;;;;;;5040642;28;20458;-68
2022/07/24 05:12:47;;;;;;;;;;;20.70;99.90;;;;;;5031264;28;20014;-69
2022/07/24 05:15:15;;;;;;;;;;;20.70;99.90;;;;;;5051035;28;20474;-68
2022/07/24 05:17:43;;;;;;;;;;;20.70;99.90;;;;;;5031883;28;20012;-68
2022/07/24 05:20:11;;;;;;;;;;;20.80;99.90;;;;;;5050942;28;20480;-68
2022/07/24 05:22:41;;;;;;;;;;;20.90;99.90;;;;;;5050610;28;20232;-68
2022/07/24 05:25:10;;;;;;;;;;;20.90;99.90;;;;;;5031478;28;19988;-68
2022/07/24 05:27:38;;;;;;;;;;;21.00;99.90;;;;;;5048104;28;19976;-67
2022/07/24 05:30:07;;;;;;;;;;;21.00;99.90;;;;;;5035916;28;19996;-68
2022/07/24 05:32:35;;;;;;;;;;;21.00;99.90;;;;;;5034966;28;20396;-69
2022/07/24 05:35:03;;;;;;;;;;;21.10;99.90;;;;;;5035365;28;19978;-68
2022/07/24 05:37:30;;;;;;;;;;;21.20;99.90;;;;;;5042030;28;19976;-68
2022/07/24 05:39:58;;;;;;;;;;;21.20;99.90;;;;;;5047437;28;19999;-68
2022/07/24 05:42:27;;;;;;;;;;;21.30;99.90;;;;;;5026564;28;19978;-68
2022/07/24 05:44:55;;;;;;;;;;;21.40;99.90;;;;;;5015458;28;20499;-68
2022/07/24 05:47:23;;;;;;;;;;;21.50;99.90;;;;;;5015473;28;20016;-68
2022/07/24 05:49:51;;;;;;;;;;;21.60;99.90;;;;;;5015439;28;20450;-68
2022/07/24 05:52:19;;;;;;;;;;;21.60;99.90;;;;;;5027673;28;19970;-68
2022/07/24 05:54:47;;;;;;;;;;;21.60;99.90;;;;;;5028172;28;20027;-69
2022/07/24 05:57:14;;;;;;;;;;;21.80;99.90;;;;;;5028265;28;19983;-68
2022/07/24 05:59:43;;;;;;;;;;;21.90;99.90;;;;;;5028054;28;19974;-68
2022/07/24 06:02:11;;;;;;;;;;;22.00;99.90;;;;;;5014866;28;19978;-68
2022/07/24 06:04:41;;;;;;;;;;;22.10;99.90;;;;;;5027938;28;20035;-69
2022/07/24 06:07:10;;;;;;;;;;;22.20;99.90;;;;;;5028100;28;20015;-68
2022/07/24 06:09:38;;;;;;;;;;;22.20;99.90;;;;;;5021837;28;20490;-68
2022/07/24 06:12:06;;;;;;;;;;;22.30;99.90;;;;;;5026189;28;19969;-70
2022/07/24 06:14:34;;;;;;;;;;;22.30;99.90;;;;;;5014691;28;20034;-68
2022/07/24 06:17:03;;;;;;;;;;;22.40;99.90;;;;;;5014750;28;20039;-68
2022/07/24 06:19:31;;;;;;;;;;;22.50;99.90;;;;;;5014860;28;20405;-68
2022/07/24 06:21:59;;;;;;;;;;;22.60;99.90;;;;;;5014333;28;20106;-66
2022/07/24 06:24:27;;;;;;;;;;;22.70;99.90;;;;;;5014528;28;20516;-68
2022/07/24 06:26:54;;;;;;;;;;;22.80;99.90;;;;;;5015840;28;20055;-69
2022/07/24 06:29:39;;;;;;;;;;;23.00;99.90;;;;;;5033712;28;20773;-68
2022/07/24 06:32:08;;;;;;;;;;;23.10;99.90;;;;;;5033391;28;20770;-68
2022/07/24 06:34:36;;;;;;;;;;;23.00;99.90;;;;;;5033601;28;20458;-68
2022/07/24 06:37:04;;;;;;;;;;;23.00;99.90;;;;;;5032973;28;20600;-68
2022/07/24 06:39:32;;;;;;;;;;;23.10;99.90;;;;;;5029102;28;20039;-68
2022/07/24 06:41:59;;;;;;;;;;;23.10;99.90;;;;;;5025056;28;20036;-68
2022/07/24 06:44:27;;;;;;;;;;;23.20;99.90;;;;;;5049281;28;20886;-68
2022/07/24 06:46:55;;;;;;;;;;;23.10;99.90;;;;;;5053319;28;20253;-68
2022/07/24 06:49:24;;;;;;;;;;;23.20;99.90;;;;;;5053343;28;21442;-68
2022/07/24 06:51:52;;;;;;;;;;;23.30;99.90;;;;;;5053097;28;20715;-68
2022/07/24 06:54:21;;;;;;;;;;;23.40;99.90;;;;;;5052896;28;20204;-68
2022/07/24 06:56:49;;;;;;;;;;;23.50;99.90;;;;;;5052796;28;20093;-69
2022/07/24 06:59:19;;;;;;;;;;;23.50;99.90;;;;;;5042290;28;20103;-70
2022/07/24 07:01:47;;;;;;;;;;;23.50;99.90;;;;;;5033780;28;20873;-69
2022/07/24 07:04:14;;;;;;;;;;;23.80;99.90;;;;;;5033426;28;20483;-69
2022/07/24 07:06:43;;;;;;;;;;;23.90;99.90;;;;;;5034314;28;20766;-69
2022/07/24 07:09:11;;;;;;;;;;;23.90;99.90;;;;;;5044799;28;20098;-70
2022/07/24 07:11:39;;;;;;;;;;;24.00;99.90;;;;;;5033465;28;21165;-69
2022/07/24 07:14:07;;;;;;;;;;;24.20;99.90;;;;;;5042699;28;20815;-69
2022/07/24 07:16:38;;;;;;;;;;;24.40;99.90;;;;;;5052834;28;21152;-69
2022/07/24 07:19:06;;;;;;;;;;;24.40;99.90;;;;;;5052597;28;20355;-69
2022/07/24 07:21:36;;;;;;;;;;;24.30;99.90;;;;;;5052461;28;20753;-69
2022/07/24 07:24:06;;;;;;;;;;;24.40;99.90;;;;;;5052110;28;20501;-69
2022/07/24 07:26:33;;;;;;;;;;;24.60;99.90;;;;;;5052487;28;20361;-68
2022/07/24 07:29:01;;;;;;;;;;;24.70;99.90;;;;;;5049876;28;20442;-69
2022/07/24 07:31:29;;;;;;;;;;;24.80;99.90;;;;;;5050637;28;20724;-69
2022/07/24 07:33:58;;;;;;;;;;;24.90;99.90;;;;;;5035304;28;25119;-69
2022/07/24 07:36:27;;;;;;;;;;;24.90;99.90;;;;;;5033131;28;20304;-69
2022/07/24 07:38:57;;;;;;;;;;;24.90;99.80;;;;;;5044431;28;20855;-69
2022/07/24 07:41:26;;;;;;;;;;;25.00;99.90;;;;;;5038537;28;20314;-68
2022/07/24 07:43:54;;;;;;;;;;;25.10;99.90;;;;;;5037900;28;20229;-70
2022/07/24 07:46:22;;;;;;;;;;;25.20;99.60;;;;;;5052281;28;20605;-69
2022/07/24 07:48:49;;;;;;;;;;;25.30;99.10;;;;;;5051364;28;20765;-69
2022/07/24 07:51:17;;;;;;;;;;;25.50;99.10;;;;;;5052043;28;20252;-69
2022/07/24 07:53:51;;;;;;;;;;;25.60;99.50;;;;;;5051754;28;21021;-69
2022/07/24 07:56:18;;;;;;;;;;;25.80;98.50;;;;;;5051890;28;20712;-69
2022/07/24 07:58:50;;;;;;;;;;;25.90;98.60;;;;;;5049682;28;20927;-69
2022/07/24 08:01:18;;;;;;;;;;;26.10;98.70;;;;;;5051652;28;21192;-69
2022/07/24 08:03:46;;;;;;;;;;;26.30;98.80;;;;;;5051348;28;20356;-69
2022/07/24 08:06:14;;;;;;;;;;;26.50;97.60;;;;;;5051730;28;20426;-69
2022/07/24 08:08:42;;;;;;;;;;;26.50;97.40;;;;;;5046964;28;20327;-68
2022/07/24 08:11:10;;;;;;;;;;;26.50;97.80;;;;;;5034092;28;25071;-70
2022/07/24 08:13:37;;;;;;;;;;;26.60;97.00;;;;;;5033390;28;20115;-69
2022/07/24 08:16:07;;;;;;;;;;;26.60;96.80;;;;;;5050166;28;20628;-69
2022/07/24 08:18:35;;;;;;;;;;;26.70;97.60;;;;;;5051592;28;20364;-69
2022/07/24 08:21:03;;;;;;;;;;;26.80;97.00;;;;;;5051575;28;20639;-69
2022/07/24 08:23:31;;;;;;;;;;;26.90;96.90;;;;;;5051302;28;21181;-70
2022/07/24 08:25:58;;;;;;;;;;;27.00;97.10;;;;;;5051275;28;20443;-69
2022/07/24 08:28:26;;;;;;;;;;;27.10;96.40;;;;;;5051280;28;20081;-69
2022/07/24 08:30:54;;;;;;;;;;;27.30;96.20;;;;;;5050125;28;20400;-69
2022/07/24 08:33:23;;;;;;;;;;;27.50;96.30;;;;;;5050769;28;25077;-69
2022/07/24 08:35:51;;;;;;;;;;;27.60;96.20;;;;;;5051315;28;20523;-69
2022/07/24 08:38:19;;;;;;;;;;;27.70;96.20;;;;;;5046421;28;20646;-69
2022/07/24 08:40:46;;;;;;;;;;;27.90;95.60;;;;;;5041954;28;20720;-69
2022/07/24 08:43:14;;;;;;;;;;;28.20;96.00;;;;;;5059225;23;20620;-64
2022/07/24 08:45:43;;;;;;;;;;;28.10;95.80;;;;;;5042383;28;19995;-63
2022/07/24 08:48:11;;;;;;;;;;;28.30;95.60;;;;;;5032075;28;20191;-63
2022/07/24 08:50:41;;;;;;;;;;;28.30;94.90;;;;;;5032169;28;20619;-63
2022/07/24 08:53:10;;;;;;;;;;;28.40;95.10;;;;;;5034960;28;20343;-63
2022/07/24 08:55:38;;;;;;;;;;;28.60;94.70;;;;;;5031164;28;20034;-65
2022/07/24 08:58:06;;;;;;;;;;;28.80;93.70;;;;;;5031079;28;20462;-65
2022/07/24 09:00:34;;;;;;;;;;;28.90;93.40;;;;;;5031788;28;20674;-65
2022/07/24 09:03:02;;;;;;;;;;;29.00;93.90;;;;;;5034125;28;20308;-65
2022/07/24 09:05:32;;;;;;;;;;;29.00;94.00;;;;;;5035023;28;20270;-65
2022/07/24 09:08:08;;;;;;;;;;;29.20;93.80;;;;;;5032723;28;20960;-65
2022/07/24 09:10:35;;;;;;;;;;;29.50;93.90;;;;;;5031182;28;20462;-65
2022/07/24 09:13:12;;;;;;;;;;;29.80;93.90;;;;;;5015720;28;20787;-65
2022/07/24 09:15:44;;;;;;;;;;;29.90;92.40;;;;;;5028842;28;25062;-63
2022/07/24 09:18:25;;;;;;;;;;;30.00;92.60;;;;;;5034915;28;20319;-63
2022/07/24 09:20:55;;;;;;;;;;;30.20;92.10;;;;;;5034950;28;20575;-63
2022/07/24 09:23:24;;;;;;;;;;;30.40;91.80;;;;;;5034427;28;20564;-62
2022/07/24 09:25:52;;;;;;;;;;;30.20;91.30;;;;;;5034929;28;21312;-63
2022/07/24 09:28:21;;;;;;;;;;;30.20;92.00;;;;;;5034640;28;20693;-63
2022/07/24 09:30:49;;;;;;;;;;;30.30;91.40;;;;;;5034816;28;20213;-63
2022/07/24 09:33:18;;;;;;;;;;;30.20;90.20;;;;;;5024163;28;20115;-63
2022/07/24 09:35:46;;;;;;;;;;;30.40;91.40;;;;;;5015338;28;20693;-64
2022/07/24 09:38:15;;;;;;;;;;;30.70;90.40;;;;;;5023665;28;21181;-63
2022/07/24 09:40:45;;;;;;;;;;;30.60;89.50;;;;;;5025855;28;20290;-63
2022/07/24 09:43:18;;;;;;;;;;;30.90;90.20;;;;;;5033766;28;20784;-63
2022/07/24 09:45:54;;;;;;;;;;;31.00;90.20;;;;;;5018778;28;20191;-63
2022/07/24 09:48:23;;;;;;;;;;;31.30;89.20;;;;;;5015451;28;25134;-64
2022/07/24 09:50:52;;;;;;;;;;;31.70;88.60;;;;;;5015575;28;20662;-64
2022/07/24 09:53:20;;;;;;;;;;;31.90;87.00;;;;;;5014926;28;21165;-64
2022/07/24 09:55:58;;;;;;;;;;;32.00;86.10;;;;;;5015197;28;21002;-63
2022/07/24 09:58:26;;;;;;;;;;;32.30;88.50;;;;;;5014938;28;20929;-64
2022/07/24 10:00:56;;;;;;;;;;;32.60;87.50;;;;;;5022084;28;20339;-64
2022/07/24 10:03:25;;;;;;;;;;;32.70;85.70;;;;;;5014905;28;20234;-64
2022/07/24 10:05:54;;;;;;;;;;;32.70;84.90;;;;;;5014947;28;20717;-64
2022/07/24 10:08:22;;;;;;;;;;;32.80;85.10;;;;;;5028453;28;20292;-64
2022/07/24 10:10:50;;;;;;;;;;;33.10;85.80;;;;;;5032358;28;20359;-64
2022/07/24 10:13:27;;;;;;;;;;;33.40;84.20;;;;;;5013827;28;25077;-64
2022/07/24 10:16:05;;;;;;;;;;;33.80;83.50;;;;;;5014863;28;20221;-64
2022/07/24 10:18:36;;;;;;;;;;;33.60;82.90;;;;;;5014859;28;20863;-64
2022/07/24 10:21:08;;;;;;;;;;;33.70;82.70;;;;;;5014988;28;20877;-64
2022/07/24 10:23:46;;;;;;;;;;;33.60;81.20;;;;;;5023681;28;20736;-64
2022/07/24 10:26:17;;;;;;;;;;;33.50;81.70;;;;;;5033757;28;20656;-64
2022/07/24 10:28:51;;;;;;;;;;;33.60;81.00;;;;;;5033601;28;20233;-64
2022/07/24 10:31:19;;;;;;;;;;;33.50;80.90;;;;;;5033521;28;25070;-64
2022/07/24 10:33:49;;;;;;;;;;;33.70;80.50;;;;;;5033350;28;20653;-63
2022/07/24 10:36:18;;;;;;;;;;;33.70;81.10;;;;;;5033354;28;20359;-64
2022/07/24 10:38:52;;;;;;;;;;;34.10;79.60;;;;;;5026663;28;20491;-64
2022/07/24 10:41:23;;;;;;;;;;;33.90;79.90;;;;;;5026980;28;20182;-64
2022/07/24 10:44:19;;;;;;;;;;;33.80;79.40;;;;;;5014182;28;20256;-64
2022/07/24 10:47:05;;;;;;;;;;;33.90;80.40;;;;;;4979563;28;20654;-63
2022/07/24 10:49:43;;;;;;;;;;;34.00;78.50;;;;;;5033352;28;20132;-63
2022/07/24 10:52:12;;;;;;;;;;;34.00;77.80;;;;;;5032929;28;20722;-63
2022/07/24 10:54:41;;;;;;;;;;;34.00;79.30;;;;;;5023959;28;20536;-64
2022/07/24 10:57:09;;;;;;;;;;;33.90;78.50;;;;;;5014159;28;20824;-63
2022/07/24 10:59:37;;;;;;;;;;;33.90;79.10;;;;;;5014087;28;25065;-63
2022/07/24 11:02:26;;;;;;;;;;;33.80;77.00;;;;;;5013824;28;20143;-63
2022/07/24 11:05:12;;;;;;;;;;;33.80;77.00;;;;;;5013772;28;20095;-63
2022/07/24 11:08:01;;;;;;;;;;;34.20;78.20;;;;;;5026724;28;20506;-63
2022/07/24 11:10:44;;;;;;;;;;;34.20;77.20;;;;;;5030723;28;20718;-63
2022/07/24 11:13:26;;;;;;;;;;;34.60;76.20;;;;;;5015064;28;25081;-63
2022/07/24 11:16:18;;;;;;;;;;;34.90;76.70;;;;;;5012799;28;21170;-62
2022/07/24 11:19:08;;;;;;;;;;;35.10;78.00;;;;;;5000413;28;20004;-63
2022/07/24 11:21:40;;;;;;;;;;;35.00;73.80;;;;;;5013796;28;25105;-64
2022/07/24 11:24:17;;;;;;;;;;;35.00;74.90;;;;;;5013813;28;21141;-64
2022/07/24 11:26:49;;;;;;;;;;;34.90;72.80;;;;;;5013884;28;20460;-63
2022/07/24 11:29:17;;;;;;;;;;;34.50;73.30;;;;;;5013639;28;19992;-64
2022/07/24 11:31:46;;;;;;;;;;;34.60;72.60;;;;;;5013767;28;20172;-63
2022/07/24 11:34:14;;;;;;;;;;;34.10;72.30;;;;;;5021276;28;20289;-63
2022/07/24 11:36:44;;;;;;;;;;;34.20;74.10;;;;;;5013393;28;25059;-64
2022/07/24 11:39:12;;;;;;;;;;;34.60;72.60;;;;;;5021757;28;21493;-64
2022/07/24 11:41:44;;;;;;;;;;;34.70;71.70;;;;;;5029807;28;20041;-63
2022/07/24 11:44:12;;;;;;;;;;;34.60;72.30;;;;;;5016727;28;19950;-64
2022/07/24 11:46:41;;;;;;;;;;;34.70;73.20;;;;;;5013236;28;20053;-64
2022/07/24 11:49:10;;;;;;;;;;;34.90;71.60;;;;;;5013158;28;25132;-64
2022/07/24 11:51:41;;;;;;;;;;;35.30;70.20;;;;;;5012999;28;20005;-64
2022/07/24 11:54:11;;;;;;;;;;;35.60;69.20;;;;;;5013005;28;20655;-64
2022/07/24 11:56:39;;;;;;;;;;;35.80;71.70;;;;;;5022647;28;20521;-63
2022/07/24 11:59:21;;;;;;;;;;;36.00;70.00;;;;;;5012769;28;25068;-64
2022/07/24 12:01:49;;;;;;;;;;;36.00;70.10;;;;;;5012946;28;20242;-64
2022/07/24 12:04:19;;;;;;;;;;;36.10;70.90;;;;;;5012628;28;20163;-64
2022/07/24 12:06:47;;;;;;;;;;;36.40;70.50;;;;;;5012732;28;26121;-64
2022/07/24 12:09:16;;;;;;;;;;;36.70;68.40;;;;;;5018256;28;20172;-64
2022/07/24 12:11:44;;;;;;;;;;;36.90;67.80;;;;;;5026844;28;20060;-64
2022/07/24 12:14:18;;;;;;;;;;;37.40;66.80;;;;;;5031616;28;25090;-63
2022/07/24 12:16:52;;;;;;;;;;;37.60;67.90;;;;;;5012685;28;20234;-64
2022/07/24 12:19:22;;;;;;;;;;;37.50;67.70;;;;;;4995073;28;20647;-63
2022/07/24 12:21:51;;;;;;;;;;;37.20;68.30;;;;;;5012346;28;25069;-64
2022/07/24 12:24:21;;;;;;;;;;;37.20;68.80;;;;;;5012487;28;19961;-64
2022/07/24 12:26:50;;;;;;;;;;;37.10;69.00;;;;;;5017856;28;20554;-64
2022/07/24 12:29:18;;;;;;;;;;;37.10;68.20;;;;;;5017490;28;20077;-64
2022/07/24 12:31:46;;;;;;;;;;;37.50;67.30;;;;;;5012374;28;20745;-64
2022/07/24 12:34:13;;;;;;;;;;;37.60;67.20;;;;;;5012393;28;20527;-64
2022/07/24 12:36:42;;;;;;;;;;;37.40;67.00;;;;;;5012125;28;20781;-64
2022/07/24 12:39:11;;;;;;;;;;;37.40;68.10;;;;;;5019831;28;20865;-64
2022/07/24 12:41:44;;;;;;;;;;;37.70;68.10;;;;;;5029771;28;20153;-65
2022/07/24 12:44:17;;;;;;;;;;;37.80;66.10;;;;;;5012272;28;25068;-64
2022/07/24 12:46:45;;;;;;;;;;;37.50;66.10;;;;;;5012125;28;20747;-64
2022/07/24 12:49:14;;;;;;;;;;;37.40;65.60;;;;;;4994616;28;20088;-64
2022/07/24 12:51:46;;;;;;;;;;;37.00;64.50;;;;;;5012516;28;25087;-64
2022/07/24 12:54:21;;;;;;;;;;;36.80;65.50;;;;;;5012144;28;20686;-64
2022/07/24 12:56:51;;;;;;;;;;;36.90;64.80;;;;;;5012323;28;20812;-64
2022/07/24 12:59:22;;;;;;;;;;;36.50;66.60;;;;;;5020215;28;20649;-64
2022/07/24 13:01:51;;;;;;;;;;;36.80;67.20;;;;;;5012065;28;20759;-64
2022/07/24 13:04:20;;;;;;;;;;;37.40;65.70;;;;;;5023155;28;21305;-63
2022/07/24 13:06:50;;;;;;;;;;;37.60;65.30;;;;;;5019175;28;25561;-64
2022/07/24 13:09:18;;;;;;;;;;;37.80;65.80;;;;;;5012098;28;20751;-64
2022/07/24 13:11:46;;;;;;;;;;;38.10;64.60;;;;;;5030012;28;20412;-64
2022/07/24 13:14:16;;;;;;;;;;;38.50;64.90;;;;;;5012721;28;20685;-64
2022/07/24 13:16:44;;;;;;;;;;;38.70;62.50;;;;;;5011364;28;20314;-64
2022/07/24 13:19:13;;;;;;;;;;;38.80;63.20;;;;;;5019680;28;25075;-64
2022/07/24 13:21:41;;;;;;;;;;;39.00;62.50;;;;;;5012515;28;20657;-64
2022/07/24 13:24:09;;;;;;;;;;;38.90;62.30;;;;;;5011990;28;20218;-64
2022/07/24 13:26:38;;;;;;;;;;;38.40;61.80;;;;;;5011706;28;20855;-64
2022/07/24 13:29:06;;;;;;;;;;;38.00;62.00;;;;;;5011929;28;20837;-64
2022/07/24 13:31:35;;;;;;;;;;;37.80;62.40;;;;;;5011788;28;25066;-64
2022/07/24 13:34:03;;;;;;;;;;;38.10;62.10;;;;;;5017731;28;25157;-64
2022/07/24 13:36:32;;;;;;;;;;;38.10;61.10;;;;;;5030390;28;21194;-64
2022/07/24 13:39:03;;;;;;;;;;;38.30;60.80;;;;;;5027853;28;20822;-64
2022/07/24 13:41:31;;;;;;;;;;;38.90;61.60;;;;;;5026100;28;20897;-64
2022/07/24 13:43:59;;;;;;;;;;;39.00;61.00;;;;;;5011885;28;20792;-64
2022/07/24 13:46:28;;;;;;;;;;;39.40;60.20;;;;;;5011492;28;25071;-64
2022/07/24 13:48:58;;;;;;;;;;;39.60;59.80;;;;;;5021615;28;20344;-64
2022/07/24 13:51:25;;;;;;;;;;;39.60;60.00;;;;;;5015457;28;20390;-64
2022/07/24 13:53:53;;;;;;;;;;;40.10;59.50;;;;;;5028096;28;20842;-64
2022/07/24 13:56:22;;;;;;;;;;;40.60;58.60;;;;;;5014935;28;25096;-64
2022/07/24 13:58:50;;;;;;;;;;;41.00;60.00;;;;;;5015051;28;20699;-64
2022/07/24 14:01:19;;;;;;;;;;;41.00;58.30;;;;;;5015277;28;25067;-64
2022/07/24 14:03:58;;;;;;;;;;;41.00;58.20;;;;;;5014785;28;20532;-64
2022/07/24 14:06:45;;;;;;;;;;;41.00;58.40;;;;;;5033134;28;20303;-64
2022/07/24 14:09:13;;;;;;;;;;;40.00;57.50;;;;;;5030323;28;20188;-64
2022/07/24 14:11:41;;;;;;;;;;;40.10;58.90;;;;;;5030823;28;20727;-64
2022/07/24 14:14:09;;;;;;;;;;;40.00;57.80;;;;;;5016902;28;20232;-64
2022/07/24 14:16:37;;;;;;;;;;;39.90;58.20;;;;;;5025252;28;20675;-64
2022/07/24 14:19:06;;;;;;;;;;;40.30;58.80;;;;;;5033750;28;20238;-64
2022/07/24 14:21:34;;;;;;;;;;;40.40;58.00;;;;;;5033584;28;25142;-64
2022/07/24 14:24:02;;;;;;;;;;;40.30;57.20;;;;;;5033549;28;20330;-64
2022/07/24 14:26:30;;;;;;;;;;;40.30;57.40;;;;;;5018609;28;25120;-64
2022/07/24 14:28:58;;;;;;;;;;;39.80;57.60;;;;;;5015211;28;20347;-64